Time;durP1;ratioP1;P1;durP2;ratioP2;P2;SDS_P1;SDS_P2;PMS_P1;PMS_P2;Temp;Humidity;BMP_temperature;BMP_pressure;BME280_temperature;BME280_humidity;BME280_pressure;Samples;Min_cycle;Max_cycle;Signal;HPM_P1;HPM_P2
2022/07/25 00:01:46;;;;;;;2.87;2.42;;;;;;;19.50;70.98;100944.05;5145154;57;1139048;-69
2022/07/25 00:06:52;;;;;;;2.47;2.35;;;;;;;19.38;71.42;100929.77;5141546;56;1139108;-68
2022/07/25 00:11:57;;;;;;;2.83;2.62;;;;;;;19.20;72.09;100931.23;5152540;56;1139001;-68
2022/07/25 00:17:06;;;;;;;2.27;1.95;;;;;;;19.12;72.17;100922.66;5175241;56;1139018;-68
2022/07/25 00:22:12;;;;;;;3.52;2.50;;;;;;;19.13;72.42;100920.32;5140658;57;1138973;-70
2022/07/25 00:27:17;;;;;;;4.40;2.50;;;;;;;19.19;72.59;100917.49;5133596;57;1138993;-70
2022/07/25 00:32:23;;;;;;;4.67;2.27;;;;;;;19.15;72.57;100918.31;5120604;57;1139122;-69
2022/07/25 00:37:29;;;;;;;2.33;2.17;;;;;;;19.19;72.64;100911.63;5139472;57;1139008;-68
2022/07/25 00:42:35;;;;;;;3.35;2.00;;;;;;;19.21;72.52;100908.28;5151006;57;1139019;-70
2022/07/25 00:47:44;;;;;;;3.35;2.55;;;;;;;19.26;72.34;100917.15;5061478;58;1139016;-68
2022/07/25 00:52:55;;;;;;;2.77;2.58;;;;;;;19.16;71.84;100907.09;4987027;58;1139021;-68
2022/07/25 00:57:59;;;;;;;2.33;2.12;;;;;;;19.03;72.14;100906.73;5160218;56;1138972;-69
2022/07/25 01:03:05;;;;;;;2.67;2.40;;;;;;;18.99;72.64;100902.19;5149581;57;1138992;-68
2022/07/25 01:08:11;;;;;;;2.15;1.98;;;;;;;18.96;72.83;100906.53;5144538;57;1139033;-70
2022/07/25 01:13:18;;;;;;;2.37;2.17;;;;;;;18.96;73.04;100899.34;5149895;56;1139270;-67
2022/07/25 01:18:23;;;;;;;8.13;2.35;;;;;;;19.01;73.08;100885.45;5145272;57;1138950;-69
2022/07/25 01:23:29;;;;;;;2.62;2.42;;;;;;;19.01;73.02;100898.02;5149731;57;1139190;-70
2022/07/25 01:28:35;;;;;;;2.55;2.37;;;;;;;18.98;72.94;100887.11;5149961;56;1139009;-70
2022/07/25 01:33:41;;;;;;;6.08;2.40;;;;;;;18.96;72.94;100885.93;5144593;57;1138970;-69
2022/07/25 01:38:47;;;;;;;3.37;2.27;;;;;;;18.92;73.03;100880.59;5150654;57;1138992;-70
2022/07/25 01:43:53;;;;;;;2.40;2.20;;;;;;;18.85;73.81;100881.39;5150441;56;1138854;-70
2022/07/25 01:48:58;;;;;;;5.33;2.40;;;;;;;18.77;73.21;100874.19;5174454;56;1138985;-68
2022/07/25 01:54:04;;;;;;;3.33;2.62;;;;;;;18.72;73.45;100885.04;5149251;56;1138973;-69
2022/07/25 01:59:10;;;;;;;3.70;3.02;;;;;;;18.65;73.83;100871.94;5115928;56;1139216;-70
2022/07/25 02:04:16;;;;;;;2.70;2.50;;;;;;;18.61;73.91;100871.45;5129603;57;1139138;-67
2022/07/25 02:09:22;;;;;;;5.78;1.98;;;;;;;18.59;74.17;100872.95;5093699;57;1138994;-68
2022/07/25 02:14:27;;;;;;;3.30;2.17;;;;;;;18.58;74.29;100874.41;5111502;56;1138916;-67
2022/07/25 02:19:33;;;;;;;6.05;4.55;;;;;;;18.61;74.38;100871.45;5106525;57;1138981;-68
2022/07/25 02:24:39;;;;;;;2.67;2.05;;;;;;;18.56;74.37;100871.05;5190123;55;1138935;-68
2022/07/25 02:29:44;;;;;;;4.70;2.47;;;;;;;18.46;74.45;100863.66;5160599;56;1139180;-69
2022/07/25 02:34:50;;;;;;;7.72;2.22;;;;;;;18.41;74.62;100872.17;5144388;57;1138962;-68
2022/07/25 02:39:57;;;;;;;3.12;1.90;;;;;;;18.39;74.89;100868.81;5158150;57;1138981;-69
2022/07/25 02:45:03;;;;;;;6.15;2.70;;;;;;;18.26;75.27;100860.39;5206102;57;1138894;-70
2022/07/25 02:50:10;;;;;;;8.00;2.52;;;;;;;18.15;75.41;100860.17;5186500;55;1138987;-69
2022/07/25 02:55:15;;;;;;;4.22;2.85;;;;;;;18.06;75.59;100861.11;5187284;56;1136831;-68
2022/07/25 03:00:21;;;;;;;5.62;2.33;;;;;;;17.93;76.11;100852.68;5206283;56;1136943;-70
2022/07/25 03:05:27;;;;;;;10.05;3.00;;;;;;;17.88;76.54;100855.81;5234248;56;1136891;-69
2022/07/25 03:10:35;;;;;;;17.12;4.22;;;;;;;17.87;76.91;100860.83;5205221;56;1138960;-69
2022/07/25 03:15:40;;;;;;;11.35;3.45;;;;;;;17.86;76.96;100855.66;5197457;57;1138958;-69
2022/07/25 03:20:46;;;;;;;7.40;3.45;;;;;;;17.84;77.07;100858.49;5162866;56;1139068;-69
2022/07/25 03:25:52;;;;;;;5.22;3.00;;;;;;;17.77;77.11;100853.91;5182095;56;1137120;-68
2022/07/25 03:30:58;;;;;;;10.23;2.72;;;;;;;17.72;77.34;100853.56;5205868;57;1136858;-67
2022/07/25 03:36:04;;;;;;;6.40;3.37;;;;;;;17.72;77.50;100848.22;5205822;57;1138964;-67
2022/07/25 03:41:10;;;;;;;3.12;2.80;;;;;;;17.70;77.64;100849.70;5193270;56;1136930;-67
2022/07/25 03:46:16;;;;;;;6.55;2.80;;;;;;;17.69;77.86;100852.03;5241150;56;1137022;-67
2022/07/25 03:51:22;;;;;;;11.68;3.83;;;;;;;17.70;78.03;100851.05;5218358;56;1137009;-67
2022/07/25 03:56:30;;;;;;;15.28;3.10;;;;;;;17.69;78.53;100847.19;5239586;56;1138922;-68
2022/07/25 04:01:36;;;;;;;12.77;3.10;;;;;;;17.65;79.07;100839.96;5205590;56;1139205;-69
2022/07/25 04:06:42;;;;;;;13.17;5.33;;;;;;;17.64;79.30;100834.27;5269591;55;1139007;-69
2022/07/25 04:11:49;;;;;;;3.08;2.83;;;;;;;17.69;79.74;100837.82;5239065;56;1138927;-68
2022/07/25 04:16:54;;;;;;;9.50;3.17;;;;;;;17.73;80.17;100829.80;5297859;55;1137005;-68
2022/07/25 04:22:00;;;;;;;4.07;2.50;;;;;;;17.76;80.09;100828.16;5239624;55;1134857;-67
2022/07/25 04:27:06;;;;;;;4.00;2.75;;;;;;;17.85;80.60;100836.59;5225686;56;1135080;-70
